createdAt,value
2022-12-14T00:00:12.602Z,51.216011
2022-12-14T00:01:12.657Z,51.216038
2022-12-14T00:02:12.619Z,51.215908
2022-12-14T00:03:12.735Z,51.215939
2022-12-14T00:04:12.578Z,51.216064
2022-12-14T00:05:12.574Z,51.216087
2022-12-14T00:06:12.571Z,51.216080
2022-12-14T00:07:12.557Z,51.216030
2022-12-14T00:08:12.549Z,51.216038
2022-12-14T00:09:12.544Z,51.216053
2022-12-14T00:10:12.541Z,51.216103
2022-12-14T00:11:12.580Z,51.215969
2022-12-14T00:12:12.542Z,51.216190
2022-12-14T00:13:12.518Z,51.216175
2022-12-14T00:14:12.527Z,51.216255
2022-12-14T00:15:12.510Z,51.216198
2022-12-14T00:16:12.579Z,51.216198
2022-12-14T00:17:12.526Z,51.216091
2022-12-14T00:18:12.498Z,51.216019
2022-12-14T00:19:12.551Z,51.216095
2022-12-14T00:20:12.487Z,51.216179
2022-12-14T00:21:12.482Z,51.216358
2022-12-14T00:22:12.514Z,51.216293
2022-12-14T00:23:12.478Z,51.216080
2022-12-14T00:24:12.453Z,51.215984
2022-12-14T00:25:12.478Z,51.216095
2022-12-14T00:26:12.455Z,51.216080
2022-12-14T00:27:12.445Z,51.216084
2022-12-14T00:28:12.447Z,51.216133
2022-12-14T00:29:12.438Z,51.216106
2022-12-14T00:30:12.426Z,51.216049
2022-12-14T00:31:12.484Z,51.216064
2022-12-14T00:32:12.427Z,51.216061
2022-12-14T00:33:12.413Z,51.216793
2022-12-14T00:34:12.400Z,51.216278
2022-12-14T00:35:12.394Z,51.216103
2022-12-14T00:36:12.405Z,51.216129
2022-12-14T00:37:12.382Z,51.216114
2022-12-14T00:38:12.378Z,51.216129
2022-12-14T00:39:12.365Z,51.216030
2022-12-14T00:40:12.361Z,51.216141
2022-12-14T00:41:12.350Z,51.216072
2022-12-14T00:42:12.350Z,51.216145
2022-12-14T00:43:12.351Z,51.216187
2022-12-14T00:44:12.335Z,51.215992
2022-12-14T00:45:12.333Z,51.216091
2022-12-14T00:46:12.409Z,51.216118
2022-12-14T00:47:12.319Z,51.216133
2022-12-14T00:48:12.322Z,51.216156
2022-12-14T00:49:12.322Z,51.216084
2022-12-14T00:50:12.324Z,51.216087
2022-12-14T00:51:12.302Z,51.216061
2022-12-14T00:52:12.310Z,51.216007
2022-12-14T00:53:12.275Z,51.216034
2022-12-14T00:54:12.281Z,51.215996
2022-12-14T00:55:12.282Z,51.216034
2022-12-14T00:56:12.272Z,51.216064
2022-12-14T00:57:12.257Z,51.216038
2022-12-14T00:58:12.250Z,51.216114
2022-12-14T00:59:12.255Z,51.216259
2022-12-14T01:00:12.242Z,51.216202
2022-12-14T01:01:12.441Z,51.216118
2022-12-14T01:02:12.368Z,51.216133
2022-12-14T01:03:12.341Z,51.216167
2022-12-14T01:04:12.287Z,51.216114
2022-12-14T01:05:12.215Z,51.216221
2022-12-14T01:06:12.209Z,51.216110
2022-12-14T01:07:12.213Z,51.216057
2022-12-14T01:08:12.198Z,51.216137
2022-12-14T01:09:12.198Z,51.216087
2022-12-14T01:10:12.213Z,51.216038
2022-12-14T01:11:12.177Z,51.216129
2022-12-14T01:12:12.192Z,51.216084
2022-12-14T01:13:12.174Z,51.216076
2022-12-14T01:14:12.190Z,51.216167
2022-12-14T01:15:12.160Z,51.216106
2022-12-14T01:16:12.267Z,51.216011
2022-12-14T01:17:12.139Z,51.216122
2022-12-14T01:18:12.137Z,51.216091
2022-12-14T01:19:12.144Z,51.216187
2022-12-14T01:20:12.130Z,51.216076
2022-12-14T01:21:12.121Z,51.216152
2022-12-14T01:22:12.114Z,51.216011
2022-12-14T01:23:12.111Z,51.216125
2022-12-14T01:24:12.146Z,51.216187
2022-12-14T01:25:12.097Z,51.216175
2022-12-14T01:26:12.114Z,51.216251
2022-12-14T01:27:12.078Z,51.216206
2022-12-14T01:28:12.098Z,51.216198
2022-12-14T01:29:12.076Z,51.216209
2022-12-14T01:30:12.070Z,51.216145
2022-12-14T01:31:12.139Z,51.216148
2022-12-14T01:32:12.061Z,51.216255
2022-12-14T01:33:12.088Z,51.216187
2022-12-14T01:34:12.057Z,51.216095
2022-12-14T01:35:12.034Z,51.216042
2022-12-14T01:36:12.043Z,51.216080
2022-12-14T01:37:12.029Z,51.216080
2022-12-14T01:38:12.034Z,51.216171
2022-12-14T01:39:12.049Z,51.216198
2022-12-14T01:40:12.018Z,51.216125
2022-12-14T01:41:12.010Z,51.216145
2022-12-14T01:42:12.002Z,51.216167
2022-12-14T01:43:11.994Z,51.216076
2022-12-14T01:44:11.993Z,51.216068
2022-12-14T01:45:11.983Z,51.216080
2022-12-14T01:46:12.008Z,51.216187
2022-12-14T01:47:12.912Z,51.216148
2022-12-14T01:48:12.966Z,51.216187
2022-12-14T01:49:11.982Z,51.216145
2022-12-14T01:50:11.950Z,51.215969
2022-12-14T01:51:11.994Z,51.216087
2022-12-14T01:52:11.953Z,51.216194
2022-12-14T01:53:11.935Z,51.216175
2022-12-14T01:54:11.924Z,51.216152
2022-12-14T01:55:11.934Z,51.216106
2022-12-14T01:56:11.918Z,51.216084
2022-12-14T01:57:11.923Z,51.216228
2022-12-14T01:58:11.910Z,51.216072
2022-12-14T01:59:11.919Z,51.216095
2022-12-14T02:00:11.900Z,51.215942
2022-12-14T02:01:11.918Z,51.215954
2022-12-14T02:02:12.013Z,51.216141
2022-12-14T02:03:11.922Z,51.216129
2022-12-14T02:04:11.881Z,51.216156
2022-12-14T02:05:12.127Z,51.216118
2022-12-14T02:06:11.866Z,51.215885
2022-12-14T02:07:11.863Z,51.216190
2022-12-14T02:08:11.858Z,51.216034
2022-12-14T02:09:11.852Z,51.216087
2022-12-14T02:10:11.856Z,51.216213
2022-12-14T02:11:11.838Z,51.216152
2022-12-14T02:12:11.825Z,51.216068
2022-12-14T02:13:11.829Z,51.216061
2022-12-14T02:14:11.821Z,51.216049
2022-12-14T02:15:11.862Z,51.215881
2022-12-14T02:16:11.850Z,51.216061
2022-12-14T02:17:11.801Z,51.216076
2022-12-14T02:18:11.847Z,51.216148
2022-12-14T02:19:11.838Z,51.216076
2022-12-14T02:20:11.799Z,51.216087
2022-12-14T02:21:11.813Z,51.215954
2022-12-14T02:22:11.774Z,51.216015
2022-12-14T02:23:11.774Z,51.216087
2022-12-14T02:24:11.957Z,51.216129
2022-12-14T02:25:11.785Z,51.216141
2022-12-14T02:26:11.757Z,51.215996
2022-12-14T02:27:11.750Z,51.216011
2022-12-14T02:28:11.737Z,51.215977
2022-12-14T02:29:11.734Z,51.216084
2022-12-14T02:30:11.799Z,51.216160
2022-12-14T02:31:11.740Z,51.216064
2022-12-14T02:32:11.714Z,51.216034
2022-12-14T02:33:11.712Z,51.216118
2022-12-14T02:34:11.701Z,51.216175
2022-12-14T02:35:11.705Z,51.216084
2022-12-14T02:36:11.713Z,51.215984
2022-12-14T02:37:11.690Z,51.216042
2022-12-14T02:38:11.681Z,51.216106
2022-12-14T02:39:11.674Z,51.216114
2022-12-14T02:40:11.675Z,51.216042
2022-12-14T02:41:11.681Z,51.216061
2022-12-14T02:42:11.658Z,51.216122
2022-12-14T02:43:11.658Z,51.216099
2022-12-14T02:44:11.653Z,51.216038
2022-12-14T02:45:11.642Z,51.216049
2022-12-14T02:46:11.661Z,51.216011
2022-12-14T02:47:11.692Z,51.216042
2022-12-14T02:48:11.638Z,51.216038
2022-12-14T02:49:11.623Z,51.216175
2022-12-14T02:50:11.611Z,51.216125
2022-12-14T02:51:11.615Z,51.216068
2022-12-14T02:52:11.601Z,51.216072
2022-12-14T02:53:11.613Z,51.216095
2022-12-14T02:54:11.589Z,51.216137
2022-12-14T02:55:11.591Z,51.216103
2022-12-14T02:56:11.578Z,51.216106
2022-12-14T02:57:11.571Z,51.216198
2022-12-14T02:58:11.638Z,51.216087
2022-12-14T02:59:11.574Z,51.216213
2022-12-14T03:00:11.551Z,51.216118
2022-12-14T03:01:11.670Z,51.216213
2022-12-14T03:02:11.622Z,51.216099
2022-12-14T03:03:11.541Z,51.216064
2022-12-14T03:04:11.566Z,51.216099
2022-12-14T03:05:11.530Z,51.216183
2022-12-14T03:06:11.534Z,51.216118
2022-12-14T03:07:11.515Z,51.215824
2022-12-14T03:08:11.498Z,51.216003
2022-12-14T03:09:11.510Z,51.216103
2022-12-14T03:10:11.495Z,51.215733
2022-12-14T03:11:11.495Z,51.215759
2022-12-14T03:12:11.482Z,51.215961
2022-12-14T03:13:11.477Z,51.215893
2022-12-14T03:14:11.481Z,51.215965
2022-12-14T03:15:11.467Z,51.215931
2022-12-14T03:16:11.504Z,51.215809
2022-12-14T03:17:15.180Z,51.216187
2022-12-14T03:18:11.434Z,51.216095
2022-12-14T03:19:11.461Z,51.216091
2022-12-14T03:20:11.437Z,51.216103
2022-12-14T03:21:11.427Z,51.215889
2022-12-14T03:22:11.426Z,51.216141
2022-12-14T03:23:11.426Z,51.215988
2022-12-14T03:24:11.430Z,51.216034
2022-12-14T03:25:11.419Z,51.216011
2022-12-14T03:26:11.409Z,51.215984
2022-12-14T03:27:11.398Z,51.216076
2022-12-14T03:28:11.394Z,51.216114
2022-12-14T03:29:11.402Z,51.216141
2022-12-14T03:30:11.378Z,51.216190
2022-12-14T03:31:11.397Z,51.216236
2022-12-14T03:32:11.370Z,51.216183
2022-12-14T03:33:11.358Z,51.216274
2022-12-14T03:34:13.138Z,51.216309
2022-12-14T03:35:11.342Z,51.216225
2022-12-14T03:36:11.357Z,51.216221
2022-12-14T03:37:11.348Z,51.216141
2022-12-14T03:38:11.334Z,51.216145
2022-12-14T03:39:11.334Z,51.216084
2022-12-14T03:40:11.317Z,51.216110
2022-12-14T03:41:11.319Z,51.216209
2022-12-14T03:42:11.312Z,51.216236
2022-12-14T03:43:11.301Z,51.216114
2022-12-14T03:44:11.307Z,51.216133
2022-12-14T03:45:11.295Z,51.216148
2022-12-14T03:46:11.315Z,51.216122
2022-12-14T03:47:11.289Z,51.216164
2022-12-14T03:48:11.273Z,51.216106
2022-12-14T03:49:11.277Z,51.216152
2022-12-14T03:50:11.269Z,51.216190
2022-12-14T03:51:11.262Z,51.216194
2022-12-14T03:52:11.251Z,51.216255
2022-12-14T03:53:11.247Z,51.216183
2022-12-14T03:54:11.257Z,51.216137
2022-12-14T03:55:11.239Z,51.216099
2022-12-14T03:56:11.237Z,51.216099
2022-12-14T03:57:11.250Z,51.216103
2022-12-14T03:58:11.221Z,51.216038
2022-12-14T03:59:11.227Z,51.216133
2022-12-14T04:00:11.209Z,51.216072
2022-12-14T04:01:11.293Z,51.216068
2022-12-14T04:02:11.307Z,51.216225
2022-12-14T04:03:11.248Z,51.216213
2022-12-14T04:04:11.202Z,51.216278
2022-12-14T04:05:11.186Z,51.216137
2022-12-14T04:06:11.179Z,51.216118
2022-12-14T04:07:11.172Z,51.216091
2022-12-14T04:08:11.171Z,51.216228
2022-12-14T04:09:11.174Z,51.216232
2022-12-14T04:10:11.160Z,51.216164
2022-12-14T04:11:11.241Z,51.216068
2022-12-14T04:12:11.141Z,51.216167
2022-12-14T04:13:11.138Z,51.216255
2022-12-14T04:14:11.129Z,51.216198
2022-12-14T04:15:11.145Z,51.216129
2022-12-14T04:16:11.157Z,51.216087
2022-12-14T04:17:11.114Z,51.216290
2022-12-14T04:18:11.109Z,51.216118
2022-12-14T04:19:11.097Z,51.216003
2022-12-14T04:20:11.094Z,51.216187
2022-12-14T04:21:11.109Z,51.216145
2022-12-14T04:22:11.078Z,51.216267
2022-12-14T04:23:11.075Z,51.216084
2022-12-14T04:24:11.070Z,51.216087
2022-12-14T04:25:11.069Z,51.215977
2022-12-14T04:26:11.070Z,51.215893
2022-12-14T04:27:11.067Z,51.216087
2022-12-14T04:28:11.041Z,51.215981
2022-12-14T04:29:11.038Z,51.216259
2022-12-14T04:30:11.038Z,51.216110
2022-12-14T04:31:11.026Z,51.215744
2022-12-14T04:32:11.286Z,51.215790
2022-12-14T04:33:11.018Z,51.215672
2022-12-14T04:34:11.018Z,51.215759
2022-12-14T04:35:11.009Z,51.215931
2022-12-14T04:36:11.006Z,51.216190
2022-12-14T04:37:11.000Z,51.216190
2022-12-14T04:38:10.997Z,51.216103
2022-12-14T04:39:10.989Z,51.216152
2022-12-14T04:40:10.990Z,51.216068
2022-12-14T04:41:10.975Z,51.216110
2022-12-14T04:42:10.982Z,51.216118
2022-12-14T04:43:10.973Z,51.216000
2022-12-14T04:44:10.959Z,51.216080
2022-12-14T04:45:10.942Z,51.216034
2022-12-14T04:46:11.014Z,51.215912
2022-12-14T04:47:10.937Z,51.215881
2022-12-14T04:48:10.942Z,51.215954
2022-12-14T04:49:10.922Z,51.216053
2022-12-14T04:50:10.917Z,51.216099
2022-12-14T04:51:10.914Z,51.216026
2022-12-14T04:52:10.915Z,51.216007
2022-12-14T04:53:10.910Z,51.215984
2022-12-14T04:54:10.897Z,51.216038
2022-12-14T04:55:10.895Z,51.216125
2022-12-14T04:56:10.883Z,51.215916
2022-12-14T04:57:15.844Z,51.215977
2022-12-14T04:58:12.877Z,51.216061
2022-12-14T04:59:10.862Z,51.216114
2022-12-14T05:00:10.858Z,51.216156
2022-12-14T05:01:10.929Z,51.216183
2022-12-14T05:02:10.917Z,51.216198
2022-12-14T05:03:10.896Z,51.215958
2022-12-14T05:04:12.773Z,51.216160
2022-12-14T05:05:11.840Z,51.216034
2022-12-14T05:06:10.834Z,51.215477
2022-12-14T05:07:10.821Z,51.214947
2022-12-14T05:08:10.814Z,51.214882
2022-12-14T05:09:10.818Z,51.214794
2022-12-14T05:10:10.804Z,51.215164
2022-12-14T05:11:49.728Z,51.215698
2022-12-14T05:12:12.802Z,51.215790
2022-12-14T05:13:10.791Z,51.216015
2022-12-14T05:14:10.793Z,51.215660
2022-12-14T05:15:10.770Z,51.215805
2022-12-14T05:16:10.783Z,51.216042
2022-12-14T05:17:10.826Z,51.216068
2022-12-14T05:18:10.766Z,51.215862
2022-12-14T05:19:10.761Z,51.216232
2022-12-14T05:20:10.756Z,51.216240
2022-12-14T05:21:10.761Z,51.215778
2022-12-14T05:22:10.740Z,51.216057
2022-12-14T05:23:10.733Z,51.216064
2022-12-14T05:24:10.722Z,51.216370
2022-12-14T05:25:10.714Z,51.216648
2022-12-14T05:26:10.741Z,51.216297
2022-12-14T05:27:10.710Z,51.216076
2022-12-14T05:28:10.697Z,51.215965
2022-12-14T05:29:10.670Z,51.216225
2022-12-14T05:30:10.686Z,51.216209
2022-12-14T05:31:11.762Z,51.216164
2022-12-14T05:32:10.669Z,51.216270
2022-12-14T05:33:10.685Z,51.216236
2022-12-14T05:34:10.660Z,51.216072
2022-12-14T05:35:10.652Z,51.216240
2022-12-14T05:36:10.681Z,51.216080
2022-12-14T05:37:17.708Z,51.215981
2022-12-14T05:38:12.650Z,51.216156
2022-12-14T05:39:10.672Z,51.216270
2022-12-14T05:40:10.630Z,51.216270
2022-12-14T05:41:10.625Z,51.216381
2022-12-14T05:42:10.630Z,51.216164
2022-12-14T05:43:10.622Z,51.216160
2022-12-14T05:44:10.640Z,51.216217
2022-12-14T05:45:10.613Z,51.216164
2022-12-14T05:46:10.615Z,51.216095
2022-12-14T05:47:10.594Z,51.216232
2022-12-14T05:48:10.588Z,51.216145
2022-12-14T05:49:10.572Z,51.216171
2022-12-14T05:50:10.581Z,51.216110
2022-12-14T05:51:10.565Z,51.216187
2022-12-14T05:52:10.561Z,51.216179
2022-12-14T05:53:10.548Z,51.216202
2022-12-14T05:54:10.553Z,51.216202
2022-12-14T05:55:10.558Z,51.216194
2022-12-14T05:56:10.548Z,51.216156
2022-12-14T05:57:10.544Z,51.216183
2022-12-14T05:58:10.532Z,51.216026
2022-12-14T05:59:10.533Z,51.216076
2022-12-14T06:00:10.523Z,51.215942
2022-12-14T06:01:15.496Z,51.216343
2022-12-14T06:02:11.580Z,51.216076
2022-12-14T06:03:10.518Z,51.216103
2022-12-14T06:04:10.550Z,51.216232
2022-12-14T06:05:10.493Z,51.216187
2022-12-14T06:06:10.502Z,51.216480
2022-12-14T06:07:10.481Z,51.216248
2022-12-14T06:08:10.473Z,51.216171
2022-12-14T06:09:10.469Z,51.216084
2022-12-14T06:10:10.465Z,51.216206
2022-12-14T06:11:10.456Z,51.216225
2022-12-14T06:12:10.460Z,51.216293
2022-12-14T06:13:10.450Z,51.216213
2022-12-14T06:14:10.448Z,51.216309
2022-12-14T06:15:10.429Z,51.216270
2022-12-14T06:16:10.458Z,51.216064
2022-12-14T06:17:10.423Z,51.215950
2022-12-14T06:18:10.428Z,51.215996
2022-12-14T06:19:10.420Z,51.216145
2022-12-14T06:20:10.414Z,51.216141
2022-12-14T06:21:10.407Z,51.216084
2022-12-14T06:22:10.404Z,51.216110
2022-12-14T06:23:10.415Z,51.215965
2022-12-14T06:24:10.384Z,51.216034
2022-12-14T06:25:10.381Z,51.216011
2022-12-14T06:26:10.373Z,51.216015
2022-12-14T06:27:10.382Z,51.216015
2022-12-14T06:28:10.372Z,51.216106
2022-12-14T06:29:10.359Z,51.216103
2022-12-14T06:30:10.356Z,51.216019
2022-12-14T06:31:10.370Z,51.216118
2022-12-14T06:32:10.419Z,51.216076
2022-12-14T06:33:10.367Z,51.216030
2022-12-14T06:34:10.332Z,51.216061
2022-12-14T06:35:10.325Z,51.216026
2022-12-14T06:36:10.317Z,51.215862
2022-12-14T06:37:10.300Z,51.215954
2022-12-14T06:38:10.300Z,51.216019
2022-12-14T06:39:10.297Z,51.216087
2022-12-14T06:40:10.300Z,51.216053
2022-12-14T06:41:10.287Z,51.216000
2022-12-14T06:42:10.276Z,51.216026
2022-12-14T06:43:10.275Z,51.216042
2022-12-14T06:44:10.268Z,51.216045
2022-12-14T06:45:10.277Z,51.216011
2022-12-14T06:46:15.046Z,51.216084
2022-12-14T06:47:12.248Z,51.216099
2022-12-14T06:48:10.253Z,51.215988
2022-12-14T06:49:10.237Z,51.215973
2022-12-14T06:50:10.238Z,51.215870
2022-12-14T06:51:10.238Z,51.215984
2022-12-14T06:52:10.229Z,51.216110
2022-12-14T06:53:10.212Z,51.215858
2022-12-14T06:54:10.225Z,51.216011
2022-12-14T06:55:10.204Z,51.216068
2022-12-14T06:56:10.196Z,51.216095
2022-12-14T06:57:10.200Z,51.216152
2022-12-14T06:58:10.181Z,51.215794
2022-12-14T06:59:10.177Z,51.215801
2022-12-14T07:00:10.193Z,51.215973
2022-12-14T07:01:10.316Z,51.215866
2022-12-14T07:02:10.221Z,51.215939
2022-12-14T07:03:10.263Z,51.215950
2022-12-14T07:04:10.143Z,51.215981
2022-12-14T07:05:10.151Z,51.216080
2022-12-14T07:06:10.143Z,51.216000
2022-12-14T07:07:10.132Z,51.215916
2022-12-14T07:08:10.117Z,51.215797
2022-12-14T07:09:10.113Z,51.215893
2022-12-14T07:10:10.116Z,51.215931
2022-12-14T07:11:10.101Z,51.215992
2022-12-14T07:12:10.117Z,51.216133
2022-12-14T07:13:10.094Z,51.216026
2022-12-14T07:14:10.089Z,51.216030
2022-12-14T07:15:10.104Z,51.216034
2022-12-14T07:16:10.195Z,51.216068
2022-12-14T07:17:10.061Z,51.216011
2022-12-14T07:18:10.089Z,51.216038
2022-12-14T07:19:10.044Z,51.216068
2022-12-14T07:20:10.073Z,51.216171
2022-12-14T07:21:10.053Z,51.216030
2022-12-14T07:22:10.031Z,51.216007
2022-12-14T07:23:11.039Z,51.216007
2022-12-14T07:24:10.036Z,51.216118
2022-12-14T07:25:10.017Z,51.216038
2022-12-14T07:26:10.054Z,51.216015
2022-12-14T07:27:10.012Z,51.215931
2022-12-14T07:28:10.004Z,51.215858
2022-12-14T07:29:10.001Z,51.215961
2022-12-14T07:30:09.997Z,51.216045
2022-12-14T07:31:10.030Z,51.216068
2022-12-14T07:32:10.004Z,51.216080
2022-12-14T07:33:09.973Z,51.216057
2022-12-14T07:34:09.961Z,51.216076
2022-12-14T07:35:16.276Z,51.216080
2022-12-14T07:36:11.972Z,51.216137
2022-12-14T07:37:09.979Z,51.216133
2022-12-14T07:38:09.940Z,51.216156
2022-12-14T07:39:09.935Z,51.216187
2022-12-14T07:40:09.939Z,51.216106
2022-12-14T07:41:09.935Z,51.216137
2022-12-14T07:42:09.916Z,51.216110
2022-12-14T07:43:09.941Z,51.216011
2022-12-14T07:44:09.910Z,51.216030
2022-12-14T07:45:09.908Z,51.216091
2022-12-14T07:46:09.955Z,51.216061
2022-12-14T07:47:13.818Z,51.216076
2022-12-14T07:48:10.895Z,51.216087
2022-12-14T07:49:09.890Z,51.216125
2022-12-14T07:50:09.870Z,51.216164
2022-12-14T07:51:09.862Z,51.216221
2022-12-14T07:52:09.854Z,51.216141
2022-12-14T07:53:09.847Z,51.216038
2022-12-14T07:54:09.854Z,51.216019
2022-12-14T07:55:09.841Z,51.216015
2022-12-14T07:56:09.840Z,51.216038
2022-12-14T07:57:09.845Z,51.216106
2022-12-14T07:58:09.826Z,51.216061
2022-12-14T07:59:09.823Z,51.216084
2022-12-14T08:00:09.803Z,51.216148
2022-12-14T08:01:09.862Z,51.216141
2022-12-14T08:02:09.892Z,51.216042
2022-12-14T08:03:09.806Z,51.215931
2022-12-14T08:04:09.922Z,51.216137
2022-12-14T08:05:12.638Z,51.216045
2022-12-14T08:06:10.772Z,51.215996
2022-12-14T08:07:09.766Z,51.215950
2022-12-14T08:08:09.762Z,51.216072
2022-12-14T08:09:09.771Z,51.216114
2022-12-14T08:10:09.791Z,51.216198
2022-12-14T08:11:09.744Z,51.216095
2022-12-14T08:12:09.743Z,51.216099
2022-12-14T08:13:09.724Z,51.216129
2022-12-14T08:14:09.727Z,51.216053
2022-12-14T08:15:09.755Z,51.216236
2022-12-14T08:16:09.842Z,51.216099
2022-12-14T08:17:09.697Z,51.216129
2022-12-14T08:18:10.702Z,51.216240
2022-12-14T08:19:09.704Z,51.216206
2022-12-14T08:20:09.694Z,51.216171
2022-12-14T08:21:09.691Z,51.216286
2022-12-14T08:22:09.690Z,51.216171
2022-12-14T08:23:09.678Z,51.216164
2022-12-14T08:24:09.669Z,51.216064
2022-12-14T08:25:09.665Z,51.216393
2022-12-14T08:26:09.679Z,51.216515
2022-12-14T08:27:09.646Z,51.216202
2022-12-14T08:28:09.638Z,51.215919
2022-12-14T08:29:09.638Z,51.216007
2022-12-14T08:30:09.637Z,51.215992
2022-12-14T08:31:09.673Z,51.216106
2022-12-14T08:32:09.631Z,51.216217
2022-12-14T08:33:09.636Z,51.216335
2022-12-14T08:34:09.606Z,51.216370
2022-12-14T08:35:09.595Z,51.216080
2022-12-14T08:36:09.596Z,51.215988
2022-12-14T08:37:09.586Z,51.216167
2022-12-14T08:38:09.616Z,51.216267
2022-12-14T08:39:09.565Z,51.216263
2022-12-14T08:40:09.564Z,51.216297
2022-12-14T08:41:09.558Z,51.216198
2022-12-14T08:42:09.552Z,51.216137
2022-12-14T08:43:09.569Z,51.216187
2022-12-14T08:44:09.553Z,51.216148
2022-12-14T08:45:09.531Z,51.216156
2022-12-14T08:46:09.619Z,51.216221
2022-12-14T08:47:09.570Z,51.216164
2022-12-14T08:48:09.509Z,51.216038
2022-12-14T08:49:09.517Z,51.216080
2022-12-14T08:50:09.498Z,51.215965
2022-12-14T08:51:09.482Z,51.216000
2022-12-14T08:52:09.485Z,51.216118
2022-12-14T08:53:09.484Z,51.216099
2022-12-14T08:54:09.476Z,51.216061
2022-12-14T08:55:09.470Z,51.216076
2022-12-14T08:56:09.466Z,51.216145
2022-12-14T08:57:09.456Z,51.216064
2022-12-14T08:58:09.538Z,51.216080
2022-12-14T08:59:19.628Z,51.216022
2022-12-14T09:00:10.445Z,51.215977
2022-12-14T09:01:09.617Z,51.216202
2022-12-14T09:02:09.553Z,51.216476
2022-12-14T09:03:09.476Z,51.216141
2022-12-14T09:04:09.412Z,51.216080
2022-12-14T09:05:09.448Z,51.216068
2022-12-14T09:06:09.396Z,51.216099
2022-12-14T09:07:09.376Z,51.216068
2022-12-14T09:08:09.390Z,51.216137
2022-12-14T09:09:15.988Z,51.216125
2022-12-14T09:10:11.378Z,51.216171
2022-12-14T09:11:09.350Z,51.216164
2022-12-14T09:12:09.351Z,51.216133
2022-12-14T09:13:09.328Z,51.216145
2022-12-14T09:14:09.332Z,51.216125
2022-12-14T09:15:09.338Z,51.216103
2022-12-14T09:16:09.410Z,51.216049
2022-12-14T09:17:09.308Z,51.216103
2022-12-14T09:18:09.300Z,51.216148
2022-12-14T09:19:09.313Z,51.216152
2022-12-14T09:20:09.298Z,51.216152
2022-12-14T09:21:09.295Z,51.216133
2022-12-14T09:22:09.373Z,51.216114
2022-12-14T09:23:09.257Z,51.216045
2022-12-14T09:24:09.256Z,51.216110
2022-12-14T09:25:09.253Z,51.216087
2022-12-14T09:26:09.255Z,51.216057
2022-12-14T09:27:09.246Z,51.216133
2022-12-14T09:28:09.224Z,51.216087
2022-12-14T09:29:09.232Z,51.216095
2022-12-14T09:30:09.225Z,51.216145
2022-12-14T09:31:09.243Z,51.216152
2022-12-14T09:32:09.221Z,51.216110
2022-12-14T09:33:09.202Z,51.216057
2022-12-14T09:34:09.206Z,51.216118
2022-12-14T09:35:09.195Z,51.216110
2022-12-14T09:36:09.176Z,51.216145
2022-12-14T09:37:09.196Z,51.216118
2022-12-14T09:38:09.164Z,51.216137
2022-12-14T09:39:09.161Z,51.216110
2022-12-14T09:40:09.144Z,51.216129
2022-12-14T09:41:09.153Z,51.216122
2022-12-14T09:42:09.173Z,51.216125
2022-12-14T09:43:09.137Z,51.216068
2022-12-14T09:44:14.573Z,51.216068
2022-12-14T09:45:10.125Z,51.216053
2022-12-14T09:46:09.153Z,51.216072
2022-12-14T09:47:09.114Z,51.216091
2022-12-14T09:48:09.097Z,51.216091
2022-12-14T09:49:09.111Z,51.216084
2022-12-14T09:50:09.092Z,51.216072
2022-12-14T09:51:09.129Z,51.216049
2022-12-14T09:52:09.077Z,51.216114
2022-12-14T09:53:09.070Z,51.216072
2022-12-14T09:54:09.085Z,51.216099
2022-12-14T09:55:09.061Z,51.216145
2022-12-14T09:56:09.045Z,51.216156
2022-12-14T09:57:09.034Z,51.216141
2022-12-14T09:58:09.044Z,51.216095
2022-12-14T09:59:09.031Z,51.216156
2022-12-14T10:00:09.012Z,51.216103
2022-12-14T10:01:09.155Z,51.216141
2022-12-14T10:03:11.094Z,51.216156
2022-12-14T10:04:09.100Z,51.216087
2022-12-14T10:05:08.984Z,51.216114
2022-12-14T10:06:08.976Z,51.216133
2022-12-14T10:07:08.981Z,51.216095
2022-12-14T10:08:08.970Z,51.216129
2022-12-14T10:09:09.117Z,51.216129
2022-12-14T10:10:08.957Z,51.216133
2022-12-14T10:11:08.944Z,51.216087
2022-12-14T10:12:08.940Z,51.216164
2022-12-14T10:13:08.931Z,51.216087
2022-12-14T10:14:08.913Z,51.216118
2022-12-14T10:15:09.921Z,51.216133
2022-12-14T10:16:08.982Z,51.216084
2022-12-14T10:17:08.961Z,51.216122
2022-12-14T10:18:17.554Z,51.216164
2022-12-14T10:19:11.575Z,51.216190
2022-12-14T10:20:08.876Z,51.216232
2022-12-14T10:21:08.873Z,51.216110
2022-12-14T10:22:08.864Z,51.216110
2022-12-14T10:23:08.888Z,51.216042
2022-12-14T10:24:08.853Z,51.216064
2022-12-14T10:25:08.849Z,51.216068
2022-12-14T10:26:08.840Z,51.216183
2022-12-14T10:27:08.833Z,51.216049
2022-12-14T10:28:11.487Z,51.216114
2022-12-14T10:29:09.821Z,51.216099
2022-12-14T10:30:08.806Z,51.216110
2022-12-14T10:31:08.796Z,51.216187
2022-12-14T10:32:08.903Z,51.216167
2022-12-14T10:33:08.799Z,51.216217
2022-12-14T10:34:12.242Z,51.216225
2022-12-14T10:35:09.781Z,51.216183
2022-12-14T10:36:08.784Z,51.216240
2022-12-14T10:37:08.757Z,51.216206
2022-12-14T10:38:08.747Z,51.216187
2022-12-14T10:39:08.757Z,51.216080
2022-12-14T10:40:15.533Z,51.216034
2022-12-14T10:41:10.748Z,51.216068
2022-12-14T10:42:08.720Z,51.216148
2022-12-14T10:43:08.719Z,51.216030
2022-12-14T10:44:08.712Z,51.216076
2022-12-14T10:46:13.905Z,51.215961
2022-12-14T10:47:09.689Z,51.216022
2022-12-14T10:48:08.694Z,51.216160
2022-12-14T10:49:08.685Z,51.216068
2022-12-14T10:50:08.656Z,51.215984
2022-12-14T10:51:08.669Z,51.215942
2022-12-14T10:52:08.667Z,51.215870
2022-12-14T10:53:08.644Z,51.216011
2022-12-14T10:54:09.720Z,51.216049
2022-12-14T10:55:08.648Z,51.216148
2022-12-14T10:56:08.679Z,51.216068
2022-12-14T10:57:08.627Z,51.216106
2022-12-14T10:58:08.625Z,51.216038
2022-12-14T10:59:08.609Z,51.216103
2022-12-14T11:00:10.237Z,51.216087
2022-12-14T11:01:09.732Z,51.216045
2022-12-14T11:02:08.821Z,51.215992
2022-12-14T11:03:08.703Z,51.216026
2022-12-14T11:04:08.596Z,51.216270
2022-12-14T11:05:08.580Z,51.216171
2022-12-14T11:06:08.568Z,51.215977
2022-12-14T11:07:08.562Z,51.216034
2022-12-14T11:08:08.550Z,51.216125
2022-12-14T11:09:08.540Z,51.216087
2022-12-14T11:10:08.565Z,51.216049
2022-12-14T11:11:09.959Z,51.216068
2022-12-14T11:12:08.611Z,51.216068
2022-12-14T11:13:08.517Z,51.216114
2022-12-14T11:14:08.513Z,51.216194
2022-12-14T11:15:08.517Z,51.216072
2022-12-14T11:16:08.550Z,51.216022
2022-12-14T11:17:08.553Z,51.216068
2022-12-14T11:18:08.628Z,51.216064
2022-12-14T11:19:08.587Z,51.215977
2022-12-14T11:20:08.464Z,51.216064
2022-12-14T11:21:08.463Z,51.216049
2022-12-14T11:22:08.472Z,51.216145
2022-12-14T11:23:08.455Z,51.216236
2022-12-14T11:24:08.449Z,51.216003
2022-12-14T11:25:08.435Z,51.216118
2022-12-14T11:26:08.430Z,51.216034